createdAt,value
2023-01-13T00:00:13.845Z,9.719073
2023-01-13T00:01:13.783Z,9.719060
2023-01-13T00:02:13.809Z,9.719110
2023-01-13T00:03:13.751Z,9.719168
2023-01-13T00:04:13.759Z,9.719167
2023-01-13T00:05:13.738Z,9.718987
2023-01-13T00:06:13.760Z,9.719123
2023-01-13T00:07:13.719Z,9.719030
2023-01-13T00:08:13.721Z,9.719163
2023-01-13T00:09:13.714Z,9.719156
2023-01-13T00:10:13.687Z,9.719143
2023-01-13T00:11:13.673Z,9.719150
2023-01-13T00:12:13.665Z,9.719122
2023-01-13T00:13:13.690Z,9.719129
2023-01-13T00:14:13.675Z,9.719129
2023-01-13T00:15:13.666Z,9.719156
2023-01-13T00:16:13.638Z,9.719089
2023-01-13T00:17:13.621Z,9.719106
2023-01-13T00:18:13.615Z,9.719102
2023-01-13T00:19:13.590Z,9.719110
2023-01-13T00:20:13.616Z,9.719103
2023-01-13T00:21:13.601Z,9.719113
2023-01-13T00:22:13.565Z,9.719049
2023-01-13T00:23:13.570Z,9.719132
2023-01-13T00:24:13.559Z,9.719157
2023-01-13T00:25:13.570Z,9.719133
2023-01-13T00:26:13.523Z,9.719203
2023-01-13T00:27:14.556Z,9.719324
2023-01-13T00:28:13.523Z,9.719254
2023-01-13T00:29:13.499Z,9.719132
2023-01-13T00:30:13.527Z,9.719187
2023-01-13T00:31:13.582Z,9.719150
2023-01-13T00:32:13.468Z,9.719175
2023-01-13T00:33:13.459Z,9.719185
2023-01-13T00:34:13.487Z,9.719111
2023-01-13T00:35:14.454Z,9.719131
2023-01-13T00:36:13.444Z,9.719088
2023-01-13T00:37:13.419Z,9.719148
2023-01-13T00:38:14.425Z,9.719215
2023-01-13T00:39:13.402Z,9.719173
2023-01-13T00:40:13.393Z,9.719172
2023-01-13T00:41:13.387Z,9.719238
2023-01-13T00:42:13.369Z,9.719146
2023-01-13T00:43:13.382Z,9.718807
2023-01-13T00:44:13.349Z,9.718885
2023-01-13T00:45:13.364Z,9.719123
2023-01-13T00:46:13.409Z,9.718764
2023-01-13T00:47:13.357Z,9.718811
2023-01-13T00:48:13.327Z,9.719090
2023-01-13T00:49:13.305Z,9.719263
2023-01-13T00:50:13.318Z,9.719381
2023-01-13T00:51:13.333Z,9.719527
2023-01-13T00:52:13.279Z,9.719798
2023-01-13T00:53:13.259Z,9.719741
2023-01-13T00:54:13.275Z,9.719786
2023-01-13T00:55:13.248Z,9.719737
2023-01-13T00:56:13.255Z,9.719697
2023-01-13T00:57:13.225Z,9.719546
2023-01-13T00:58:13.219Z,9.719273
2023-01-13T00:59:13.197Z,9.719601
2023-01-13T01:00:13.210Z,9.719750
2023-01-13T01:01:13.346Z,9.719532
2023-01-13T01:02:13.258Z,9.719457
2023-01-13T01:03:13.159Z,9.719090
2023-01-13T01:04:14.157Z,9.719450
2023-01-13T01:05:13.179Z,9.719091
2023-01-13T01:06:13.147Z,9.719174
2023-01-13T01:07:13.134Z,9.719151
2023-01-13T01:08:13.152Z,9.719229
2023-01-13T01:09:13.109Z,9.719160
2023-01-13T01:10:13.102Z,9.719166
2023-01-13T01:11:13.089Z,9.719287
2023-01-13T01:12:13.095Z,9.719122
2023-01-13T01:13:13.082Z,9.719080
2023-01-13T01:14:13.073Z,9.719177
2023-01-13T01:15:13.068Z,9.719139
2023-01-13T01:16:13.243Z,9.719152
2023-01-13T01:17:13.050Z,9.719090
2023-01-13T01:18:13.035Z,9.719102
2023-01-13T01:19:13.036Z,9.719191
2023-01-13T01:20:13.000Z,9.719062
2023-01-13T01:21:12.993Z,9.719167
2023-01-13T01:22:13.001Z,9.719130
2023-01-13T01:23:13.002Z,9.719142
2023-01-13T01:24:12.988Z,9.719211
2023-01-13T01:25:12.951Z,9.719053
2023-01-13T01:26:12.944Z,9.719107
2023-01-13T01:27:12.965Z,9.719186
2023-01-13T01:28:12.936Z,9.719036
2023-01-13T01:29:13.918Z,9.719064
2023-01-13T01:30:12.913Z,9.719090
2023-01-13T01:31:12.961Z,9.719042
2023-01-13T01:32:12.901Z,9.719129
2023-01-13T01:33:12.877Z,9.719184
2023-01-13T01:34:12.898Z,9.719196
2023-01-13T01:35:12.889Z,9.719143
2023-01-13T01:36:12.864Z,9.719290
2023-01-13T01:37:44.755Z,9.719250
2023-01-13T01:38:12.848Z,9.719262
2023-01-13T01:39:12.859Z,9.719150
2023-01-13T01:40:12.866Z,9.719157
2023-01-13T01:41:12.808Z,9.719273
2023-01-13T01:42:12.804Z,9.719279
2023-01-13T01:43:12.800Z,9.719346
2023-01-13T01:44:12.813Z,9.719205
2023-01-13T01:45:12.772Z,9.719165
2023-01-13T01:46:12.772Z,9.719133
2023-01-13T01:47:12.784Z,9.719097
2023-01-13T01:48:12.743Z,9.718964
2023-01-13T01:49:12.764Z,9.719174
2023-01-13T01:50:12.714Z,9.719131
2023-01-13T01:51:12.735Z,9.719274
2023-01-13T01:52:12.718Z,9.719297
2023-01-13T01:53:12.694Z,9.719455
2023-01-13T01:54:12.739Z,9.719057
2023-01-13T01:55:12.686Z,9.718941
2023-01-13T01:56:12.675Z,9.719026
2023-01-13T01:57:12.669Z,9.719126
2023-01-13T01:58:12.665Z,9.719110
2023-01-13T01:59:12.659Z,9.719011
2023-01-13T02:00:12.632Z,9.719291
2023-01-13T02:01:12.716Z,9.719201
2023-01-13T02:02:12.794Z,9.719259
2023-01-13T02:03:12.594Z,9.719327
2023-01-13T02:04:12.616Z,9.719160
2023-01-13T02:05:12.573Z,9.719205
2023-01-13T02:06:12.565Z,9.719228
2023-01-13T02:07:12.566Z,9.719138
2023-01-13T02:08:12.594Z,9.719150
2023-01-13T02:09:12.541Z,9.719186
2023-01-13T02:10:12.536Z,9.719383
2023-01-13T02:11:12.565Z,9.719328
2023-01-13T02:12:12.514Z,9.719352
2023-01-13T02:13:12.516Z,9.719367
2023-01-13T02:14:12.497Z,9.719325
2023-01-13T02:15:12.481Z,9.719339
2023-01-13T02:16:12.567Z,9.719236
2023-01-13T02:17:12.489Z,9.719409
2023-01-13T02:18:12.462Z,9.719172
2023-01-13T02:19:12.460Z,9.719286
2023-01-13T02:20:12.462Z,9.719395
2023-01-13T02:21:12.468Z,9.718999
2023-01-13T02:22:12.427Z,9.719476
2023-01-13T02:23:12.395Z,9.719254
2023-01-13T02:24:13.392Z,9.719198
2023-01-13T02:25:12.394Z,9.719174
2023-01-13T02:26:12.395Z,9.719273
2023-01-13T02:27:12.413Z,9.719127
2023-01-13T02:28:12.363Z,9.719139
2023-01-13T02:29:12.359Z,9.719124
2023-01-13T02:30:12.351Z,9.719105
2023-01-13T02:31:12.448Z,9.719167
2023-01-13T02:32:12.357Z,9.719150
2023-01-13T02:33:12.317Z,9.719172
2023-01-13T02:34:12.303Z,9.719170
2023-01-13T02:35:12.319Z,9.719091
2023-01-13T02:36:12.271Z,9.719179
2023-01-13T02:37:12.262Z,9.719136
2023-01-13T02:38:12.253Z,9.719210
2023-01-13T02:39:12.286Z,9.719128
2023-01-13T02:40:12.236Z,9.719132
2023-01-13T02:41:12.221Z,9.719047
2023-01-13T02:42:12.219Z,9.719166
2023-01-13T02:43:12.232Z,9.719206
2023-01-13T02:44:12.197Z,9.719171
2023-01-13T02:45:12.184Z,9.719169
2023-01-13T02:46:12.185Z,9.719108
2023-01-13T02:47:12.179Z,9.719175
2023-01-13T02:48:12.190Z,9.719046
2023-01-13T02:49:12.144Z,9.719186
2023-01-13T02:50:12.130Z,9.719176
2023-01-13T02:51:12.130Z,9.719190
2023-01-13T02:52:12.177Z,9.719068
2023-01-13T02:53:12.102Z,9.719280
2023-01-13T02:54:12.089Z,9.719280
2023-01-13T02:55:12.089Z,9.719256
2023-01-13T02:56:12.082Z,9.719222
2023-01-13T02:57:12.089Z,9.719332
2023-01-13T02:58:12.046Z,9.719324
2023-01-13T02:59:12.058Z,9.719151
2023-01-13T03:00:12.044Z,9.719210
2023-01-13T03:01:12.141Z,9.719144
2023-01-13T03:02:12.156Z,9.719442
2023-01-13T03:03:12.020Z,9.719306
2023-01-13T03:04:12.017Z,9.719448
2023-01-13T03:05:12.007Z,9.719415
2023-01-13T03:06:12.006Z,9.719355
2023-01-13T03:07:11.979Z,9.719260
2023-01-13T03:08:11.978Z,9.719429
2023-01-13T03:09:11.965Z,9.719654
2023-01-13T03:10:11.946Z,9.719606
2023-01-13T03:11:11.990Z,9.719441
2023-01-13T03:12:11.938Z,9.719488
2023-01-13T03:13:11.924Z,9.719477
2023-01-13T03:14:11.904Z,9.719396
2023-01-13T03:15:11.907Z,9.719416
2023-01-13T03:16:11.910Z,9.719338
2023-01-13T03:17:11.907Z,9.719337
2023-01-13T03:18:11.876Z,9.719326
2023-01-13T03:19:11.859Z,9.719381
2023-01-13T03:20:11.862Z,9.719445
2023-01-13T03:21:11.851Z,9.719378
2023-01-13T03:22:11.870Z,9.719325
2023-01-13T03:23:11.830Z,9.719496
2023-01-13T03:24:11.847Z,9.719479
2023-01-13T03:25:11.823Z,9.719395
2023-01-13T03:26:11.798Z,9.719630
2023-01-13T03:27:11.837Z,9.719454
2023-01-13T03:28:11.782Z,9.719382
2023-01-13T03:29:11.771Z,9.719370
2023-01-13T03:30:11.779Z,9.719389
2023-01-13T03:31:11.769Z,9.719390
2023-01-13T03:32:11.759Z,9.719371
2023-01-13T03:33:11.722Z,9.719265
2023-01-13T03:34:11.751Z,9.719353
2023-01-13T03:35:11.708Z,9.719346
2023-01-13T03:36:11.710Z,9.719254
2023-01-13T03:37:11.695Z,9.719290
2023-01-13T03:38:11.681Z,9.719234
2023-01-13T03:39:11.667Z,9.719620
2023-01-13T03:40:11.662Z,9.719691
2023-01-13T03:41:11.686Z,9.720077
2023-01-13T03:42:11.639Z,9.719307
2023-01-13T03:43:11.644Z,9.718915
2023-01-13T03:44:12.609Z,9.718970
2023-01-13T03:45:11.615Z,9.718995
2023-01-13T03:46:11.634Z,9.718913
2023-01-13T03:47:11.679Z,9.719195
2023-01-13T03:48:11.611Z,9.719221
2023-01-13T03:49:11.606Z,9.719196
2023-01-13T03:50:11.592Z,9.719079
2023-01-13T03:51:11.565Z,9.719023
2023-01-13T03:52:11.604Z,9.718992
2023-01-13T03:53:11.613Z,9.719096
2023-01-13T03:54:11.595Z,9.719232
2023-01-13T03:55:11.584Z,9.719094
2023-01-13T03:56:11.583Z,9.719184
2023-01-13T03:57:11.540Z,9.719075
2023-01-13T03:58:11.541Z,9.719140
2023-01-13T03:59:11.542Z,9.719204
2023-01-13T04:00:11.556Z,9.719195
2023-01-13T04:01:11.651Z,9.719151
2023-01-13T04:02:11.634Z,9.719196
2023-01-13T04:03:11.527Z,9.719163
2023-01-13T04:04:11.487Z,9.719142
2023-01-13T04:05:11.431Z,9.719204
2023-01-13T04:06:11.491Z,9.719170
2023-01-13T04:07:11.434Z,9.719167
2023-01-13T04:08:11.411Z,9.719367
2023-01-13T04:09:11.421Z,9.719412
2023-01-13T04:10:11.399Z,9.719356
2023-01-13T04:11:11.439Z,9.719341
2023-01-13T04:12:11.400Z,9.719342
2023-01-13T04:13:11.365Z,9.719243
2023-01-13T04:14:11.351Z,9.719316
2023-01-13T04:15:11.397Z,9.719347
2023-01-13T04:16:11.401Z,9.719239
2023-01-13T04:17:11.301Z,9.719286
2023-01-13T04:18:11.338Z,9.719372
2023-01-13T04:19:11.326Z,9.719100
2023-01-13T04:20:11.368Z,9.719090
2023-01-13T04:21:11.284Z,9.719129
2023-01-13T04:22:11.260Z,9.719141
2023-01-13T04:23:11.304Z,9.719114
2023-01-13T04:24:11.275Z,9.719134
2023-01-13T04:25:11.276Z,9.719088
2023-01-13T04:26:11.309Z,9.719127
2023-01-13T04:27:11.250Z,9.719136
2023-01-13T04:28:11.193Z,9.719136
2023-01-13T04:29:11.221Z,9.719104
2023-01-13T04:30:11.199Z,9.719073
2023-01-13T04:31:11.374Z,9.719117
2023-01-13T04:32:11.168Z,9.719172
2023-01-13T04:33:11.199Z,9.719158
2023-01-13T04:34:11.137Z,9.719110
2023-01-13T04:35:11.161Z,9.719256
2023-01-13T04:36:11.176Z,9.719170
2023-01-13T04:37:11.144Z,9.719151
2023-01-13T04:38:11.153Z,9.719129
2023-01-13T04:39:11.127Z,9.719162
2023-01-13T04:40:11.121Z,9.719163
2023-01-13T04:41:11.121Z,9.719148
2023-01-13T04:42:11.086Z,9.719134
2023-01-13T04:43:11.068Z,9.719043
2023-01-13T04:44:11.040Z,9.719204
2023-01-13T04:45:11.090Z,9.719215
2023-01-13T04:46:11.053Z,9.719156
2023-01-13T04:47:11.058Z,9.719180
2023-01-13T04:48:11.054Z,9.719178
2023-01-13T04:49:11.012Z,9.719130
2023-01-13T04:50:11.023Z,9.719098
2023-01-13T04:51:10.996Z,9.719164
2023-01-13T04:52:10.963Z,9.719160
2023-01-13T04:53:10.985Z,9.719169
2023-01-13T04:54:10.954Z,9.719152
2023-01-13T04:55:10.942Z,9.719051
2023-01-13T04:56:10.954Z,9.719341
2023-01-13T04:57:10.916Z,9.719234
2023-01-13T04:58:10.943Z,9.719211
2023-01-13T04:59:10.923Z,9.719248
2023-01-13T05:00:10.893Z,9.719172
2023-01-13T05:01:11.014Z,9.719149
2023-01-13T05:02:10.905Z,9.719351
2023-01-13T05:03:10.888Z,9.719152
2023-01-13T05:04:10.852Z,9.719271
2023-01-13T05:05:10.914Z,9.719229
2023-01-13T05:06:10.854Z,9.719016
2023-01-13T05:07:10.823Z,9.719179
2023-01-13T05:08:10.838Z,9.719142
2023-01-13T05:09:10.816Z,9.719092
2023-01-13T05:10:10.813Z,9.719108
2023-01-13T05:11:11.780Z,9.719135
2023-01-13T05:12:10.795Z,9.719133
2023-01-13T05:13:10.756Z,9.719176
2023-01-13T05:14:10.758Z,9.719315
2023-01-13T05:15:11.763Z,9.719234
2023-01-13T05:16:11.499Z,9.719264
2023-01-13T05:17:11.731Z,9.719366
2023-01-13T05:18:10.739Z,9.719297
2023-01-13T05:19:10.731Z,9.719212
2023-01-13T05:20:10.664Z,9.719205
2023-01-13T05:21:11.688Z,9.719263
2023-01-13T05:22:10.650Z,9.719337
2023-01-13T05:23:10.706Z,9.719202
2023-01-13T05:24:10.696Z,9.719240
2023-01-13T05:25:10.665Z,9.719219
2023-01-13T05:26:10.650Z,9.719372
2023-01-13T05:27:10.624Z,9.719302
2023-01-13T05:28:10.639Z,9.719218
2023-01-13T05:29:10.644Z,9.719156
2023-01-13T05:30:10.601Z,9.719173
2023-01-13T05:31:10.645Z,9.719227
2023-01-13T05:32:10.609Z,9.719155
2023-01-13T05:33:10.641Z,9.719174
2023-01-13T05:34:10.586Z,9.719213
2023-01-13T05:35:10.585Z,9.719297
2023-01-13T05:36:10.543Z,9.719256
2023-01-13T05:37:10.574Z,9.719211
2023-01-13T05:38:10.533Z,9.719197
2023-01-13T05:39:10.541Z,9.719193
2023-01-13T05:40:10.507Z,9.719280
2023-01-13T05:41:10.487Z,9.719254
2023-01-13T05:42:10.535Z,9.719226
2023-01-13T05:43:10.526Z,9.719278
2023-01-13T05:44:10.452Z,9.719261
2023-01-13T05:45:10.461Z,9.719180
2023-01-13T05:46:10.497Z,9.719213
2023-01-13T05:47:10.433Z,9.719119
2023-01-13T05:48:10.487Z,9.719165
2023-01-13T05:49:10.428Z,9.719201
2023-01-13T05:50:10.429Z,9.719197
2023-01-13T05:51:10.393Z,9.719205
2023-01-13T05:52:10.411Z,9.719237
2023-01-13T05:53:10.403Z,9.719235
2023-01-13T05:54:10.420Z,9.719209
2023-01-13T05:55:10.414Z,9.719218
2023-01-13T05:56:10.407Z,9.719278
2023-01-13T05:57:10.348Z,9.719268
2023-01-13T05:58:10.352Z,9.719238
2023-01-13T05:59:10.332Z,9.719267
2023-01-13T06:00:10.366Z,9.719223
2023-01-13T06:01:10.343Z,9.719234
2023-01-13T06:02:10.274Z,9.719156
2023-01-13T06:03:10.313Z,9.719133
2023-01-13T06:04:10.329Z,9.719228
2023-01-13T06:05:10.289Z,9.719258
2023-01-13T06:06:10.288Z,9.719224
2023-01-13T06:07:10.269Z,9.719087
2023-01-13T06:08:10.259Z,9.719048
2023-01-13T06:09:10.220Z,9.719131
2023-01-13T06:10:10.230Z,9.719111
2023-01-13T06:11:10.240Z,9.719117
2023-01-13T06:12:10.187Z,9.719117
2023-01-13T06:13:10.173Z,9.719117
2023-01-13T06:14:10.200Z,9.719117
2023-01-13T06:15:10.211Z,9.719117
2023-01-13T06:16:10.225Z,9.719117
2023-01-13T06:17:10.122Z,9.719117
2023-01-13T06:18:10.115Z,9.719117
2023-01-13T06:19:10.130Z,9.719117
2023-01-13T06:20:10.179Z,9.719117
2023-01-13T06:21:10.131Z,9.719102
2023-01-13T06:22:10.094Z,9.719164
2023-01-13T06:23:10.115Z,9.719260
2023-01-13T06:24:10.079Z,9.719140
2023-01-13T06:25:10.056Z,9.719179
2023-01-13T06:26:10.135Z,9.719318
2023-01-13T06:27:10.075Z,9.719411
2023-01-13T06:28:10.041Z,9.719359
2023-01-13T06:29:10.085Z,9.719334
2023-01-13T06:30:10.049Z,9.719167
2023-01-13T06:31:10.090Z,9.719046
2023-01-13T06:32:10.001Z,9.719312
2023-01-13T06:33:09.988Z,9.719241
2023-01-13T06:34:09.943Z,9.719161
2023-01-13T06:35:09.989Z,9.719222
2023-01-13T06:36:09.952Z,9.719283
2023-01-13T06:37:09.933Z,9.719337
2023-01-13T06:38:09.888Z,9.719290
2023-01-13T06:39:09.955Z,9.719302
2023-01-13T06:40:09.885Z,9.719301
2023-01-13T06:41:09.880Z,9.719291
2023-01-13T06:42:09.884Z,9.719440
2023-01-13T06:43:09.856Z,9.719406
2023-01-13T06:44:19.421Z,9.719386
2023-01-13T06:45:10.855Z,9.719368
2023-01-13T06:46:09.831Z,9.719504
2023-01-13T06:47:09.813Z,9.719477
2023-01-13T06:48:09.795Z,9.719500
2023-01-13T06:49:10.794Z,9.719623
2023-01-13T06:50:10.819Z,9.719700
2023-01-13T06:51:09.774Z,9.719507
2023-01-13T06:52:09.764Z,9.719520
2023-01-13T06:53:09.775Z,9.719436
2023-01-13T06:54:09.749Z,9.719362
2023-01-13T06:55:09.801Z,9.719489
2023-01-13T06:56:09.723Z,9.719276
2023-01-13T06:57:09.719Z,9.719374
2023-01-13T06:58:09.728Z,9.719252
2023-01-13T06:59:09.706Z,9.719451
2023-01-13T07:00:09.706Z,9.719525
2023-01-13T07:01:09.863Z,9.719452
2023-01-13T07:02:09.751Z,9.719370
2023-01-13T07:03:09.669Z,9.719599
2023-01-13T07:04:09.648Z,9.719442
2023-01-13T07:05:09.648Z,9.719308
2023-01-13T07:06:09.633Z,9.719278
2023-01-13T07:07:09.642Z,9.719231
2023-01-13T07:08:09.633Z,9.718972
2023-01-13T07:09:09.587Z,9.719247
2023-01-13T07:10:09.582Z,9.719385
2023-01-13T07:11:09.579Z,9.719198
2023-01-13T07:12:09.567Z,9.719283
2023-01-13T07:13:09.594Z,9.719416
2023-01-13T07:14:09.560Z,9.719290
2023-01-13T07:15:09.542Z,9.719342
2023-01-13T07:16:09.583Z,9.719299
2023-01-13T07:17:09.521Z,9.719361
2023-01-13T07:18:10.529Z,9.719297
2023-01-13T07:19:09.538Z,9.719361
2023-01-13T07:20:09.522Z,9.719227
2023-01-13T07:21:09.522Z,9.719222
2023-01-13T07:22:09.488Z,9.719366
2023-01-13T07:23:09.475Z,9.719345
2023-01-13T07:24:09.483Z,9.719379
2023-01-13T07:25:09.449Z,9.719359
2023-01-13T07:26:09.454Z,9.719317
2023-01-13T07:27:09.438Z,9.719131
2023-01-13T07:28:09.412Z,9.719294
2023-01-13T07:29:09.442Z,9.719231
2023-01-13T07:30:09.396Z,9.719418
2023-01-13T07:31:09.400Z,9.719321
2023-01-13T07:32:09.380Z,9.719049
2023-01-13T07:33:09.379Z,9.719176
2023-01-13T07:34:09.402Z,9.719351
2023-01-13T07:35:09.364Z,9.719347
2023-01-13T07:36:09.340Z,9.719565
2023-01-13T07:37:20.457Z,9.719396
2023-01-13T07:38:09.307Z,9.719320
2023-01-13T07:39:09.301Z,9.719571
2023-01-13T07:40:09.310Z,9.719457
2023-01-13T07:41:09.311Z,9.719373
2023-01-13T07:42:09.283Z,9.719303
2023-01-13T07:43:09.271Z,9.719161
2023-01-13T07:44:09.247Z,9.719118
2023-01-13T07:45:11.487Z,9.719351
2023-01-13T07:46:09.290Z,9.719185
2023-01-13T07:47:09.305Z,9.719061
2023-01-13T07:48:09.233Z,9.719102
2023-01-13T07:49:09.205Z,9.719238
2023-01-13T07:50:09.193Z,9.719341
2023-01-13T07:51:09.259Z,9.719304
2023-01-13T07:52:09.227Z,9.719262
2023-01-13T07:53:09.164Z,9.719483
2023-01-13T07:54:09.223Z,9.719319
2023-01-13T07:55:09.156Z,9.719282
2023-01-13T07:56:09.144Z,9.719374
2023-01-13T07:57:09.170Z,9.719402
2023-01-13T07:58:09.148Z,9.719239
2023-01-13T07:59:09.119Z,9.719128
2023-01-13T08:00:10.484Z,9.719151
2023-01-13T08:01:09.291Z,9.719062
2023-01-13T08:02:09.236Z,9.719297
2023-01-13T08:03:09.140Z,9.719125
2023-01-13T08:04:09.057Z,9.719195
2023-01-13T08:05:09.060Z,9.719285
2023-01-13T08:06:09.097Z,9.719096
2023-01-13T08:07:09.059Z,9.719054
2023-01-13T08:08:09.041Z,9.719118
2023-01-13T08:09:09.066Z,9.719145
2023-01-13T08:10:09.106Z,9.719134
2023-01-13T08:11:09.010Z,9.719091
2023-01-13T08:12:09.119Z,9.719095
2023-01-13T08:13:08.996Z,9.719057
2023-01-13T08:14:08.997Z,9.719080
2023-01-13T08:15:09.040Z,9.719118
2023-01-13T08:16:08.950Z,9.719038
2023-01-13T08:17:09.008Z,9.719158
2023-01-13T08:18:08.914Z,9.719190
2023-01-13T08:19:08.985Z,9.719128
2023-01-13T08:20:08.943Z,9.719095
2023-01-13T08:21:09.061Z,9.719131
2023-01-13T08:22:08.903Z,9.719131
2023-01-13T08:23:08.882Z,9.719216
2023-01-13T08:24:08.893Z,9.719200
2023-01-13T08:25:08.884Z,9.719192
2023-01-13T08:26:08.962Z,9.719160
2023-01-13T08:27:08.832Z,9.719152
2023-01-13T08:28:09.945Z,9.719206
2023-01-13T08:29:08.882Z,9.719252
2023-01-13T08:30:08.813Z,9.719163
2023-01-13T08:31:08.861Z,9.719110
2023-01-13T08:32:08.778Z,9.719154
2023-01-13T08:33:08.766Z,9.719176
2023-01-13T08:34:08.849Z,9.719148
2023-01-13T08:35:08.792Z,9.719153
2023-01-13T08:36:08.971Z,9.719196
2023-01-13T08:37:08.766Z,9.719216
2023-01-13T08:38:08.807Z,9.719208
2023-01-13T08:39:08.903Z,9.719098
2023-01-13T08:40:08.776Z,9.719145
2023-01-13T08:41:08.713Z,9.719031
2023-01-13T08:42:08.683Z,9.719003
2023-01-13T08:43:08.824Z,9.719173
2023-01-13T08:44:08.667Z,9.719330
2023-01-13T08:45:08.712Z,9.719413
2023-01-13T08:46:08.759Z,9.719420
2023-01-13T08:47:08.737Z,9.719099
2023-01-13T08:48:08.637Z,9.719108
2023-01-13T08:49:08.628Z,9.719426
2023-01-13T08:50:09.012Z,9.719342
2023-01-13T08:51:08.651Z,9.719097
2023-01-13T08:52:08.592Z,9.719007
2023-01-13T08:53:08.637Z,9.719049
2023-01-13T08:54:08.665Z,9.719143
2023-01-13T08:55:08.560Z,9.719228
2023-01-13T08:56:08.566Z,9.719221
2023-01-13T08:57:08.608Z,9.719172
2023-01-13T08:58:15.677Z,9.719135
2023-01-13T08:59:10.526Z,9.719110
2023-01-13T09:00:08.520Z,9.719118
2023-01-13T09:01:08.730Z,9.719163
2023-01-13T09:02:08.577Z,9.719123
2023-01-13T09:03:08.508Z,9.719113
2023-01-13T09:04:08.547Z,9.719105
2023-01-13T09:05:08.475Z,9.719100
2023-01-13T09:06:08.658Z,9.719075
2023-01-13T09:07:08.493Z,9.719085
2023-01-13T09:08:08.437Z,9.719129
2023-01-13T09:09:08.451Z,9.719120
2023-01-13T09:10:08.420Z,9.719119
2023-01-13T09:11:08.649Z,9.719056
2023-01-13T09:12:08.583Z,9.719105
2023-01-13T09:13:08.382Z,9.719137
2023-01-13T09:14:08.551Z,9.719139
2023-01-13T09:15:08.385Z,9.719112
2023-01-13T09:16:08.440Z,9.719082
2023-01-13T09:17:08.387Z,9.719081
2023-01-13T09:18:08.338Z,9.719103
2023-01-13T09:19:08.334Z,9.719152
2023-01-13T09:20:08.408Z,9.719186
2023-01-13T09:21:08.382Z,9.719121
2023-01-13T09:22:08.362Z,9.719056
2023-01-13T09:23:10.595Z,9.719082
2023-01-13T09:24:09.283Z,9.719127
2023-01-13T09:25:08.326Z,9.719171
2023-01-13T09:26:08.307Z,9.719129
2023-01-13T09:27:08.297Z,9.719153
2023-01-13T09:28:08.709Z,9.719088
2023-01-13T09:29:08.229Z,9.719113
2023-01-13T09:30:08.241Z,9.719141
2023-01-13T09:31:08.223Z,9.719142
2023-01-13T09:32:08.206Z,9.719130
2023-01-13T09:33:08.190Z,9.719103
2023-01-13T09:34:08.194Z,9.719135
2023-01-13T09:35:08.223Z,9.719174
2023-01-13T09:36:08.160Z,9.719217
2023-01-13T09:37:08.158Z,9.719257
2023-01-13T09:38:08.191Z,9.719157
2023-01-13T09:39:08.126Z,9.719118
2023-01-13T09:40:08.132Z,9.719139
2023-01-13T09:41:08.142Z,9.719143
2023-01-13T09:42:08.154Z,9.719170
2023-01-13T09:43:08.166Z,9.719156
2023-01-13T09:44:08.101Z,9.719153
2023-01-13T09:45:08.069Z,9.719166
2023-01-13T09:46:08.117Z,9.719172
2023-01-13T09:47:08.099Z,9.719149
2023-01-13T09:48:08.048Z,9.719214
2023-01-13T09:49:08.056Z,9.719180
2023-01-13T09:50:08.048Z,9.719160
2023-01-13T09:51:08.022Z,9.719146
2023-01-13T09:52:08.071Z,9.719136
2023-01-13T09:53:08.021Z,9.719178
2023-01-13T09:54:09.063Z,9.719210
2023-01-13T09:55:07.992Z,9.719189
2023-01-13T09:56:07.973Z,9.719155
2023-01-13T09:57:07.975Z,9.719107
2023-01-13T09:58:08.791Z,9.719209
2023-01-13T09:59:08.980Z,9.719185
2023-01-13T10:00:07.953Z,9.719226
2023-01-13T10:01:07.971Z,9.719346
2023-01-13T10:02:07.930Z,9.719305
2023-01-13T10:03:07.964Z,9.719198
2023-01-13T10:04:09.185Z,9.718680
2023-01-13T10:05:07.962Z,9.718783
2023-01-13T10:06:07.877Z,9.719143
2023-01-13T10:07:08.090Z,9.719261
2023-01-13T10:08:07.858Z,9.719265
2023-01-13T10:09:07.950Z,9.719060
2023-01-13T10:10:09.376Z,9.719009
2023-01-13T10:11:08.847Z,9.718923
2023-01-13T10:12:07.868Z,9.718984
2023-01-13T10:13:07.836Z,9.719252
2023-01-13T10:14:07.870Z,9.719089
2023-01-13T10:15:07.791Z,9.719000
2023-01-13T10:16:07.887Z,9.718882
2023-01-13T10:17:07.770Z,9.718797
2023-01-13T10:18:07.782Z,9.718814
2023-01-13T10:19:07.757Z,9.718886
2023-01-13T10:20:07.752Z,9.718882
2023-01-13T10:21:07.757Z,9.718960
2023-01-13T10:22:09.330Z,9.718987
2023-01-13T10:23:07.870Z,9.718943
2023-01-13T10:24:07.716Z,9.718968
2023-01-13T10:25:08.742Z,9.718961
2023-01-13T10:26:07.755Z,9.718949
2023-01-13T10:27:07.694Z,9.719007
2023-01-13T10:28:07.661Z,9.719003
2023-01-13T10:29:07.664Z,9.718975
2023-01-13T10:30:07.685Z,9.718978
2023-01-13T10:31:07.663Z,9.718951
2023-01-13T10:32:07.785Z,9.719013
2023-01-13T10:33:07.754Z,9.719026
2023-01-13T10:34:07.607Z,9.719071
2023-01-13T10:35:07.594Z,9.719011
2023-01-13T10:36:07.606Z,9.718863
2023-01-13T10:37:07.588Z,9.719120
2023-01-13T10:38:07.576Z,9.719203
2023-01-13T10:39:07.573Z,9.719084
2023-01-13T10:40:07.567Z,9.719141
2023-01-13T10:41:07.548Z,9.719027
2023-01-13T10:42:07.565Z,9.718999
2023-01-13T10:43:07.508Z,9.719080
2023-01-13T10:44:09.643Z,9.719146
2023-01-13T10:45:07.495Z,9.719116
2023-01-13T10:46:07.575Z,9.719011
2023-01-13T10:47:07.567Z,9.718985
2023-01-13T10:48:07.464Z,9.718717
2023-01-13T10:49:07.488Z,9.719016
2023-01-13T10:50:09.467Z,9.719065
2023-01-13T10:51:08.438Z,9.719045
2023-01-13T10:52:07.467Z,9.719037
2023-01-13T10:53:07.501Z,9.718889
2023-01-13T10:54:07.411Z,9.719024
2023-01-13T10:55:07.396Z,9.719172
2023-01-13T10:56:07.420Z,9.719119
2023-01-13T10:57:07.403Z,9.719205
2023-01-13T10:58:07.375Z,9.719031
2023-01-13T10:59:07.386Z,9.718951
2023-01-13T11:00:07.333Z,9.718967
2023-01-13T11:01:07.368Z,9.719017
2023-01-13T11:02:23.841Z,9.719007
2023-01-13T11:03:09.340Z,9.718884
2023-01-13T11:04:07.328Z,9.718841
2023-01-13T11:05:07.344Z,9.718839
2023-01-13T11:06:07.293Z,9.718705
2023-01-13T11:07:07.345Z,9.718875
2023-01-13T11:08:07.274Z,9.719072
2023-01-13T11:09:07.289Z,9.718886
2023-01-13T11:10:07.232Z,9.718890
2023-01-13T11:11:07.284Z,9.718977
2023-01-13T11:12:07.214Z,9.718650
2023-01-13T11:13:07.215Z,9.718678
2023-01-13T11:14:09.201Z,9.718714
2023-01-13T11:15:08.172Z,9.718878
2023-01-13T11:16:07.213Z,9.718546
2023-01-13T11:17:07.187Z,9.718724
2023-01-13T11:18:07.185Z,9.718830
2023-01-13T11:19:07.163Z,9.718882
2023-01-13T11:20:07.185Z,9.719049
2023-01-13T11:21:07.151Z,9.719253
2023-01-13T11:22:07.137Z,9.719273
2023-01-13T11:23:07.117Z,9.718912
2023-01-13T11:24:07.108Z,9.718895
2023-01-13T11:25:07.149Z,9.718866
2023-01-13T11:26:07.132Z,9.719182
2023-01-13T11:27:07.092Z,9.718930
2023-01-13T11:28:07.104Z,9.719269
2023-01-13T11:29:07.059Z,9.718977
2023-01-13T11:30:07.092Z,9.719281
2023-01-13T11:31:07.117Z,9.719378
2023-01-13T11:32:07.012Z,9.719265
2023-01-13T11:33:07.036Z,9.719370
2023-01-13T11:34:07.045Z,9.719353
2023-01-13T11:35:07.008Z,9.719707
2023-01-13T11:36:07.022Z,9.719375
2023-01-13T11:37:07.032Z,9.719325
2023-01-13T11:38:06.971Z,9.719319
2023-01-13T11:39:06.950Z,9.719356
2023-01-13T11:40:07.011Z,9.719134
2023-01-13T11:41:06.958Z,9.719098
2023-01-13T11:42:06.928Z,9.719013
2023-01-13T11:43:06.963Z,9.719151
2023-01-13T11:44:06.909Z,9.719172